Latest Weather Observations for Centre Island

IDD60801

Issued at 12:31 pm CST Sunday 31 July 2016 (issued every 30 minutes, with the page automatically refreshed every 10 minutes)

About weather observations | Map of weather stations | Latest weather observations for NT | Other Formats
Station Details ID: 014703 Name: CENTRE ISLAND Lat: -15.74 Lon: 136.82 Height: 12.2 m
Data from the previous 72 hours. | See also: Recent months at Centre Island
Date/Time
CST
Temp
°C
App
Temp
°C
Dew
Point
°C
Rel
Hum
%
Delta-T
°C
Wind Press
QNH
hPa
Press
MSL
hPa
Rain since
9am
mm
Dir  Spd
km/h
Gust
km/h
Spd
kts
Gust
kts
31/12:30pm 26.0 22.2 13.5 46 7.3 ESE 26 33 14 18 1014.0 1014.0 0.0
31/12:00pm 25.1 21.1 13.0 47 7.0 ESE 26 30 14 16 1014.5 1014.5 0.0
31/11:30am 24.5 19.6 12.5 47 6.9 ESE 30 35 16 19 1015.0 1015.0 0.0
31/11:00am 23.8 18.4 12.1 48 6.7 ESE 32 35 17 19 1015.3 1015.3 0.0
31/10:30am 23.9 18.3 12.2 48 6.7 ESE 33 39 18 21 1015.5 1015.5 0.0
31/10:00am 23.1 18.3 11.8 49 6.4 SE 28 32 15 17 1015.6 1015.6 0.0
31/09:30am 22.3 19.3 12.0 52 5.8 SE 19 22 10 12 1015.8 1015.8 0.0
31/09:00am 21.0 18.3 11.6 55 5.2 SSE 17 20 9 11 1015.7 1015.7 0.2
31/08:30am 20.9 18.1 11.5 55 5.2 SE 17 22 9 12 1015.5 1015.5 0.2
31/08:00am 20.3 17.1 11.2 56 5.0 SE 19 22 10 12 1015.1 1015.1 0.2
31/07:30am 19.6 16.8 13.3 67 3.6 SSE 20 24 11 13 1014.7 1014.7 0.2
31/07:00am 19.9 16.3 13.1 65 3.9 SE 24 32 13 17 1014.0 1014.0 0.2
31/06:30am 19.0 16.7 14.1 73 2.8 SE 19 22 10 12 1013.7 1013.7 0.2
31/06:00am 18.8 18.6 16.6 87 1.3 SSE 13 15 7 8 1013.6 1013.6 0.2
31/05:30am 18.8 18.4 17.1 90 1.0 SSE 15 17 8 9 1013.4 1013.4 0.2
31/05:00am 19.0 18.4 17.5 91 0.9 S 17 22 9 12 1013.2 1013.2 0.2
31/04:30am 19.5 20.3 18.2 92 0.8 SE 11 13 6 7 1013.0 1013.0 0.2
31/04:00am 19.5 20.7 18.2 92 0.8 SSE 9 13 5 7 1013.0 1013.0 0.0
31/03:30am 19.6 20.5 18.3 92 0.8 SSE 11 13 6 7 1013.1 1013.1 0.0
31/03:00am 19.9 20.4 18.4 91 0.9 S 13 15 7 8 1013.3 1013.3 0.0
31/02:30am 20.8 22.2 19.6 93 0.8 SSE 11 15 6 8 1013.2 1013.2 0.0
31/02:00am 20.7 22.4 19.4 92 0.8 SSE 9 11 5 6 1013.5 1013.5 0.0
31/01:30am 20.4 21.5 18.9 91 0.9 ENE 11 13 6 7 1013.8 1013.8 0.0
31/01:00am 20.7 22.0 19.2 91 0.9 NE 11 15 6 8 1014.1 1014.1 0.0
31/12:30am 20.8 21.3 19.3 91 0.9 ENE 15 17 8 9 1014.1 1014.1 0.0
31/12:00am 20.8 20.9 19.1 90 1.1 E 17 22 9 12 1014.1 1014.1 0.0
 
Date/Time
CST
Temp
°C
App
Temp
°C
Dew
Point
°C
Rel
Hum
%
Delta-T
°C
Wind Press
QNH
hPa
Press
MSL
hPa
Rain since
9am
mm
Dir  Spd
km/h
Gust
km/h
Spd
kts
Gust
kts
30/11:30pm 20.8 21.2 19.1 90 1.1 SE 15 17 8 9 1014.4 1014.4 0.0
30/11:00pm 20.6 21.5 18.5 88 1.3 ESE 11 13 6 7 1014.2 1014.2 0.0
30/10:30pm 20.5 21.7 18.3 87 1.4 ESE 9 13 5 7 1014.1 1014.1 0.0
30/10:00pm 20.6 22.1 18.0 85 1.6 E 7 11 4 6 1014.2 1014.2 0.0
30/09:30pm 20.9 22.3 17.9 83 1.9 ENE 7 9 4 5 1014.1 1014.1 0.0
30/09:00pm 21.3 21.9 17.7 80 2.2 ENE 11 13 6 7 1013.9 1013.9 0.0
30/08:30pm 21.4 22.3 16.6 74 2.9 NE 7 9 4 5 1013.8 1013.8 0.0
30/08:00pm 22.0 22.0 16.3 70 3.5 NE 11 13 6 7 1013.4 1013.4 0.0
30/07:30pm 22.1 21.7 16.1 69 3.6 ENE 13 17 7 9 1013.0 1013.0 0.0
30/07:00pm 22.5 21.8 16.3 68 3.8 ENE 15 17 8 9 1012.5 1012.5 0.0
30/06:30pm 22.9 21.9 15.5 63 4.4 E 15 19 8 10 1012.2 1012.2 0.0
30/06:00pm 24.0 22.1 15.2 58 5.3 E 19 22 10 12 1012.0 1012.0 0.0
30/05:30pm 25.1 22.9 14.9 53 6.1 E 20 26 11 14 1012.1 1012.1 0.0
30/05:00pm 25.9 24.1 15.9 54 6.1 E 20 22 11 12 1012.1 1012.1 0.0
30/04:30pm 26.2 24.5 16.2 54 6.1 E 20 26 11 14 1012.0 1012.0 0.0
30/04:00pm 26.4 25.2 16.1 53 6.3 E 17 20 9 11 1012.1 1012.1 0.0
30/03:30pm 26.5 25.6 15.8 51 6.5 E 15 19 8 10 1012.4 1012.4 0.0
30/03:00pm 26.8 24.7 16.1 52 6.6 ESE 22 28 12 15 1012.5 1012.5 0.0
30/02:30pm 26.2 25.0 15.0 50 6.8 ESE 15 17 8 9 1012.9 1012.9 0.0
30/02:00pm 27.0 24.8 13.4 43 8.0 ESE 17 20 9 11 1013.3 1013.3 0.0
30/01:30pm 27.1 24.3 12.7 41 8.4 E 19 24 10 13 1013.9 1013.9 0.0
30/01:00pm 26.4 23.0 12.5 42 8.1 E 22 28 12 15 1014.6 1014.6 0.0
30/12:30pm 26.5 22.7 12.5 41 8.1 E 24 28 13 15 1015.1 1015.1 0.0
30/12:00pm 25.5 20.7 11.7 42 7.8 ESE 28 35 15 19 1015.3 1015.3 0.0
30/11:30am 25.2 20.6 12.4 45 7.4 ESE 28 33 15 18 1015.9 1015.9 0.0
30/11:00am 24.1 18.1 10.7 43 7.4 ESE 33 39 18 21 1016.1 1016.1 0.0
30/10:30am 23.6 16.9 11.0 45 7.0 ESE 37 43 20 23 1016.3 1016.3 0.0
30/10:00am 22.7 14.8 9.5 43 7.1 ESE 41 46 22 25 1016.3 1016.3 0.0
30/09:30am 22.2 15.5 11.0 49 6.2 SE 37 41 20 22 1016.4 1016.4 0.0
30/09:00am 21.5 14.4 9.7 47 6.3 SE 37 43 20 23 1016.1 1016.1 0.0
30/08:30am 20.8 13.1 8.8 46 6.3 ESE 39 44 21 24 1016.1 1016.1 0.0
30/08:00am 20.4 13.1 8.7 47 6.1 ESE 37 43 20 23 1015.8 1015.8 0.0
30/07:30am 20.1 13.1 8.4 47 6.1 SE 35 39 19 21 1015.4 1015.4 0.0
30/07:00am 19.6 13.6 8.6 49 5.7 SE 30 35 16 19 1015.2 1015.2 0.0
30/06:30am 19.7 13.6 9.6 52 5.4 SE 32 39 17 21 1014.8 1014.8 0.0
30/06:00am 20.0 13.8 9.3 50 5.7 SE 32 39 17 21 1014.5 1014.5 0.0
30/05:30am 19.9 13.5 9.5 51 5.5 SSE 33 39 18 21 1014.4 1014.4 0.0
30/05:00am 20.6 14.6 10.1 51 5.7 SE 32 39 17 21 1014.4 1014.4 0.0
30/04:30am 20.8 14.8 10.0 50 5.8 SE 32 39 17 21 1014.3 1014.3 0.0
30/04:00am 21.0 15.0 10.2 50 5.9 SE 32 39 17 21 1014.5 1014.5 0.0
30/03:30am 20.6 16.1 11.5 56 5.0 SE 26 33 14 18 1014.4 1014.4 0.0
30/03:00am 20.6 17.2 13.8 65 3.9 SE 24 28 13 15 1014.5 1014.5 0.0
30/02:30am 20.2 17.6 15.0 72 3.1 SE 22 26 12 14 1014.8 1014.8 0.0
30/02:00am 20.1 17.8 15.7 76 2.6 SE 22 24 12 13 1014.8 1014.8 0.0
30/01:30am 20.1 18.0 16.3 79 2.3 SE 22 26 12 14 1015.0 1015.0 0.0
30/01:00am 20.6 19.4 17.6 83 1.8 SE 20 24 11 13 1015.2 1015.2 0.0
30/12:30am 21.3 19.4 17.7 80 2.2 ESE 24 28 13 15 1015.3 1015.3 0.0
30/12:00am 21.4 19.7 18.2 82 2.0 ESE 24 28 13 15 1015.3 1015.3 0.0
 
Date/Time
CST
Temp
°C
App
Temp
°C
Dew
Point
°C
Rel
Hum
%
Delta-T
°C
Wind Press
QNH
hPa
Press
MSL
hPa
Rain since
9am
mm
Dir  Spd
km/h
Gust
km/h
Spd
kts
Gust
kts
29/11:30pm 21.3 19.5 17.9 81 2.1 ESE 24 30 13 16 1015.3 1015.3 0.0
29/11:00pm 21.3 20.4 18.1 82 2.0 ESE 20 24 11 13 1015.5 1015.5 0.0
29/10:30pm 21.3 19.9 17.9 81 2.1 ESE 22 26 12 14 1015.5 1015.5 0.0
29/10:00pm 21.4 20.2 17.6 79 2.3 E 20 24 11 13 1015.5 1015.5 0.0
29/09:30pm 21.5 21.0 17.7 79 2.3 E 17 20 9 11 1015.1 1015.1 0.0
29/09:00pm 21.5 21.3 17.5 78 2.5 E 15 20 8 11 1015.1 1015.1 0.0
29/08:30pm 21.8 21.4 17.2 75 2.8 E 15 19 8 10 1015.0 1015.0 0.0
29/08:00pm 22.0 21.0 16.5 71 3.3 ENE 17 22 9 12 1014.7 1014.7 0.0
29/07:30pm 22.2 21.4 16.2 69 3.6 ENE 15 19 8 10 1014.3 1014.3 0.0
29/07:00pm 22.4 20.8 15.0 63 4.4 ENE 17 22 9 12 1014.1 1014.1 0.0
29/06:30pm 22.8 20.6 14.9 61 4.7 E 20 24 11 13 1013.9 1013.9 0.0
29/06:00pm 23.4 21.1 14.7 58 5.2 E 20 24 11 13 1013.6 1013.6 0.0
29/05:30pm 24.3 22.1 15.0 56 5.6 E 20 24 11 13 1013.5 1013.5 0.0
29/05:00pm 25.4 23.2 14.8 52 6.3 ENE 20 28 11 15 1013.5 1013.5 0.0
29/04:30pm 26.0 23.6 14.5 49 6.9 ENE 20 24 11 13 1013.5 1013.5 0.0
29/04:00pm 26.7 23.8 15.1 49 7.0 ENE 24 28 13 15 1013.4 1013.4 0.0
29/03:30pm 26.7 23.6 13.4 43 7.8 E 22 28 12 15 1013.5 1013.5 0.0
29/03:00pm 26.9 22.9 12.9 42 8.2 E 26 32 14 17 1013.8 1013.8 0.0
29/02:30pm 26.1 20.5 12.2 42 8.0 ESE 33 39 18 21 1014.0 1014.0 0.0
29/02:00pm 25.8 19.0 11.9 42 7.9 E 39 50 21 27 1014.3 1014.3 0.0
29/01:30pm 26.2 20.0 12.6 43 7.9 E 37 44 20 24 1014.7 1014.7 0.0
29/01:00pm 25.6 19.9 13.1 46 7.3 E 35 43 19 23 1015.2 1015.2 0.0
29/12:30pm 25.4 20.4 13.9 49 6.8 ESE 33 39 18 21 1015.7 1015.7 0.0
29/12:00pm 24.8 19.5 13.0 47 6.8 ESE 33 41 18 22 1016.0 1016.0 0.0
29/11:30am 24.6 18.0 11.5 44 7.4 ESE 37 44 20 24 1016.5 1016.5 0.0
29/11:00am 23.9 16.7 10.6 43 7.4 ESE 39 44 21 24 1016.8 1016.8 0.0
29/10:30am 23.4 16.3 10.8 45 7.0 ESE 39 44 21 24 1017.1 1017.1 0.0
29/10:00am 23.2 16.8 10.6 45 7.0 ESE 35 43 19 23 1017.3 1017.3 0.0
29/09:30am 22.3 18.1 8.1 40 7.4 SE 20 26 11 14 1017.5 1017.5 0.0
29/09:00am 21.3 16.5 7.5 41 7.1 SE 22 26 12 14 1017.3 1017.3 0.0
29/08:30am 20.5 15.9 8.2 45 6.4 SE 22 28 12 15 1016.9 1016.9 0.0
29/08:00am 19.8 14.8 7.9 46 6.1 SSE 24 28 13 15 1016.8 1016.8 0.0
29/07:30am 19.2 14.1 7.6 47 5.9 SSE 24 30 13 16 1016.7 1016.7 0.0
29/07:00am 18.8 13.5 8.5 51 5.3 SSE 26 28 14 15 1016.5 1016.5 0.0
29/06:30am 18.8 12.7 6.6 45 6.1 SSE 28 32 15 17 1016.3 1016.3 0.0
29/06:00am 19.5 14.0 7.6 46 6.1 SSE 26 32 14 17 1016.1 1016.1 0.0
29/05:30am 19.8 14.6 8.8 49 5.8 SSE 26 33 14 18 1016.0 1016.0 0.0
29/05:00am 20.5 14.1 8.5 46 6.3 SE 32 37 17 20 1015.9 1015.9 0.0
29/04:30am 20.6 14.6 8.6 46 6.3 SE 30 37 16 20 1015.8 1015.8 0.0
29/04:00am 20.7 14.1 7.7 43 6.7 SE 32 39 17 21 1015.6 1015.6 0.0
29/03:30am 20.7 14.0 8.0 44 6.6 SE 33 39 18 21 1015.9 1015.9 0.0
29/03:00am 21.2 14.0 7.8 42 6.9 SE 35 43 19 23 1016.1 1016.1 0.0
29/02:30am 21.3 14.1 9.2 46 6.4 SE 37 43 20 23 1016.0 1016.0 0.0
29/02:00am 21.2 15.5 11.0 52 5.6 SE 32 39 17 21 1016.0 1016.0 0.0
29/01:30am 22.2 15.4 10.7 48 6.3 SE 37 46 20 25 1016.0 1016.0 0.0
29/01:00am 23.1 15.5 11.8 49 6.4 SE 43 48 23 26 1016.1 1016.1 0.0
29/12:30am 22.6 18.9 15.9 66 4.0 ESE 30 35 16 19 1016.5 1016.5 0.0
29/12:00am 22.0 20.3 18.0 78 2.5 ESE 24 28 13 15 1016.6 1016.6 0.0
 
Date/Time
CST
Temp
°C
App
Temp
°C
Dew
Point
°C
Rel
Hum
%
Delta-T
°C
Wind Press
QNH
hPa
Press
MSL
hPa
Rain since
9am
mm
Dir  Spd
km/h
Gust
km/h
Spd
kts
Gust
kts
28/11:30pm 21.9 20.2 18.1 79 2.4 ESE 24 28 13 15 1016.7 1016.7 0.0
28/11:00pm 22.1 20.4 18.1 78 2.5 ESE 24 28 13 15 1016.9 1016.9 0.0
28/10:30pm 22.1 20.2 17.7 76 2.7 ESE 24 28 13 15 1016.9 1016.9 0.0
28/10:00pm 22.3 21.4 18.3 78 2.5 E 20 24 11 13 1016.7 1016.7 0.0
28/09:30pm 22.4 21.5 18.2 77 2.6 ESE 20 24 11 13 1016.7 1016.7 0.0
28/09:00pm 22.5 21.4 17.8 75 2.9 ESE 20 24 11 13 1016.5 1016.5 0.0
28/08:30pm 22.7 21.9 17.2 71 3.4 ESE 17 20 9 11 1016.3 1016.3 0.0
28/08:00pm 22.8 21.0 16.1 66 4.1 E 20 24 11 13 1016.1 1016.1 0.0
28/07:30pm 23.1 20.5 15.9 64 4.3 E 24 26 13 14 1015.7 1015.7 0.0
28/07:00pm 23.3 20.5 15.4 61 4.7 E 24 28 13 15 1015.4 1015.4 0.0
28/06:30pm 23.7 20.8 15.2 59 5.1 E 24 28 13 15 1015.2 1015.2 0.0
28/06:00pm 24.3 20.5 14.7 55 5.7 E 28 33 15 18 1014.7 1014.7 0.0
28/05:30pm 24.9 21.7 15.2 54 5.8 E 26 30 14 16 1014.5 1014.5 0.0
28/05:00pm 25.8 22.0 15.8 54 6.1 E 30 37 16 20 1014.3 1014.3 0.0
28/04:30pm 25.8 20.0 14.9 51 6.5 ESE 39 46 21 25 1014.1 1014.1 0.0
28/04:00pm 26.1 20.5 15.5 52 6.4 ESE 39 46 21 25 1014.1 1014.1 0.0
28/03:30pm 26.2 20.3 14.6 48 6.9 ESE 39 46 21 25 1014.2 1014.2 0.0
28/03:00pm 26.5 20.4 15.2 49 6.8 ESE 41 46 22 25 1014.2 1014.2 0.0
28/02:30pm 26.3 19.8 15.0 49 6.8 ESE 43 50 23 27 1014.5 1014.5 0.0
28/02:00pm 26.3 20.5 15.0 49 6.8 ESE 39 48 21 26 1014.7 1014.7 0.0
28/01:30pm 26.0 19.8 14.8 50 6.7 ESE 41 46 22 25 1015.1 1015.1 0.0
28/01:00pm 25.9 20.0 14.7 50 6.7 ESE 39 44 21 24 1015.6 1015.6 0.0

Other Formats:

Comma delimited format used in spreadsheet applications
http://www.bom.gov.au/fwo/IDD60801/IDD60801.94248.axf

JavaScript Object Notation format (JSON) in row-major order
http://www.bom.gov.au/fwo/IDD60801/IDD60801.94248.json